createdAt,value
2019-03-04T00:00:02.481Z,18.12
2019-03-04T00:02:35.055Z,18.77
2019-03-04T00:05:07.520Z,18.57
2019-03-04T00:07:39.495Z,18.05
2019-03-04T00:10:11.042Z,19.02
2019-03-04T00:12:44.337Z,17.57
2019-03-04T00:15:15.072Z,16.02
2019-03-04T00:17:46.193Z,16.67
2019-03-04T00:20:16.939Z,16.93
2019-03-04T00:22:47.671Z,17.23
2019-03-04T00:25:20.038Z,17.30
2019-03-04T00:27:50.779Z,17.40
2019-03-04T00:30:21.306Z,17.12
2019-03-04T00:32:52.102Z,17.12
2019-03-04T00:35:23.803Z,16.67
2019-03-04T00:37:53.956Z,17.10
2019-03-04T00:40:24.748Z,17.67
2019-03-04T00:42:57.525Z,17.52
2019-03-04T00:45:28.670Z,18.57
2019-03-04T00:47:59.712Z,17.10
2019-03-04T00:50:30.439Z,19.17
2019-03-04T00:53:02.095Z,17.70
2019-03-04T00:55:33.548Z,18.40
2019-03-04T00:58:04.793Z,17.30
2019-03-04T01:00:35.729Z,16.62
2019-03-04T01:03:07.385Z,17.95
2019-03-04T01:05:38.627Z,18.55
2019-03-04T01:08:09.669Z,18.73
2019-03-04T01:10:42.139Z,18.02
2019-03-04T01:13:15.538Z,16.82
2019-03-04T01:15:46.061Z,17.77
2019-03-04T01:18:17.332Z,18.80
2019-03-04T01:20:51.521Z,16.93
2019-03-04T01:23:24.694Z,16.20
2019-03-04T01:25:56.469Z,17.35
2019-03-04T01:28:27.101Z,16.35
2019-03-04T01:30:57.934Z,15.65
2019-03-04T01:33:28.763Z,15.80
2019-03-04T01:36:00.418Z,17.40
2019-03-04T01:38:31.053Z,15.50
2019-03-04T01:41:02.909Z,16.00
2019-03-04T01:43:33.745Z,15.53
2019-03-04T01:46:05.297Z,15.75
2019-03-04T01:48:36.126Z,17.27
2019-03-04T01:51:10.325Z,16.27
2019-03-04T01:53:41.998Z,16.25
2019-03-04T01:56:15.191Z,17.50
2019-03-04T01:58:45.818Z,16.42
2019-03-04T02:01:20.952Z,16.02
2019-03-04T02:03:51.276Z,16.40
2019-03-04T02:06:22.008Z,17.10
2019-03-04T02:08:52.639Z,17.55
2019-03-04T02:11:23.473Z,18.17
2019-03-04T02:13:54.825Z,16.12
2019-03-04T02:16:27.609Z,17.37
2019-03-04T02:18:58.536Z,17.48
2019-03-04T02:21:28.961Z,18.23
2019-03-04T02:24:23.351Z,17.02
2019-03-04T02:26:56.744Z,17.85
2019-03-04T02:29:28.868Z,17.70
2019-03-04T02:31:59.848Z,17.57
2019-03-04T02:34:31.606Z,18.48
2019-03-04T02:37:03.762Z,17.95
2019-03-04T02:39:34.653Z,18.37
2019-03-04T02:42:05.341Z,18.02
2019-03-04T02:44:36.232Z,18.95
2019-03-04T02:47:07.524Z,19.12
2019-03-04T02:49:42.249Z,19.98
2019-03-04T02:52:12.674Z,19.57
2019-03-04T02:54:47.180Z,19.90
2019-03-04T02:57:20.586Z,20.17
2019-03-04T02:59:51.727Z,19.77
2019-03-04T03:02:22.259Z,20.27
2019-03-04T03:04:52.989Z,20.57
2019-03-04T03:07:26.955Z,20.82
2019-03-04T03:09:58.448Z,20.48
2019-03-04T03:12:29.079Z,18.92
2019-03-04T03:14:59.810Z,19.57
2019-03-04T03:17:31.873Z,19.48
2019-03-04T03:20:02.700Z,19.10
2019-03-04T03:22:33.787Z,21.95
2019-03-04T03:25:08.489Z,19.25
2019-03-04T03:27:38.899Z,20.12
2019-03-04T03:30:22.950Z,19.40
2019-03-04T03:32:54.914Z,20.35
2019-03-04T03:35:28.410Z,18.82
2019-03-04T03:37:59.033Z,19.85
2019-03-04T03:40:33.351Z,19.80
2019-03-04T03:43:04.510Z,19.92
2019-03-04T03:45:35.942Z,18.07
2019-03-04T03:48:07.589Z,20.10
2019-03-04T03:50:39.926Z,19.65
2019-03-04T03:53:12.298Z,19.12
2019-03-04T03:55:42.761Z,19.60
2019-03-04T03:58:15.344Z,19.48
2019-03-04T04:00:46.581Z,19.12
2019-03-04T04:03:18.644Z,19.62
2019-03-04T04:05:49.996Z,19.30
2019-03-04T04:08:22.278Z,21.17
2019-03-04T04:13:27.058Z,18.95
2019-03-04T04:15:58.671Z,20.12
2019-03-04T04:18:29.014Z,20.97
2019-03-04T04:21:00.531Z,20.37
2019-03-04T04:23:32.285Z,20.57
2019-03-04T04:26:04.353Z,20.55
2019-03-04T04:28:35.284Z,21.77
2019-03-04T04:31:08.579Z,22.27
2019-03-04T04:33:40.541Z,20.92
2019-03-04T04:36:11.275Z,21.75
2019-03-04T04:38:43.537Z,22.32
2019-03-04T04:41:14.890Z,21.55
2019-03-04T04:43:46.538Z,22.22
2019-03-04T04:46:18.855Z,23.55
2019-03-04T04:48:52.509Z,21.60
2019-03-04T04:51:23.449Z,22.45
2019-03-04T04:53:55.223Z,23.25
2019-03-04T04:56:25.939Z,22.58
2019-03-04T04:58:57.590Z,23.55
2019-03-04T05:01:28.221Z,23.10
2019-03-04T05:03:59.264Z,23.32
2019-03-04T05:06:30.504Z,23.00
2019-03-04T05:09:01.137Z,23.98
2019-03-04T05:11:32.073Z,23.65
2019-03-04T05:14:04.342Z,23.05
2019-03-04T05:16:35.172Z,24.67
2019-03-04T05:19:05.695Z,23.70
2019-03-04T05:21:36.436Z,24.27
2019-03-04T05:24:07.089Z,22.52
2019-03-04T05:26:38.622Z,22.93
2019-03-04T05:29:09.451Z,22.75
2019-03-04T05:31:40.704Z,23.98
2019-03-04T05:34:13.987Z,24.02
2019-03-04T05:36:45.704Z,22.85
2019-03-04T05:39:16.581Z,23.47
2019-03-04T05:41:47.613Z,22.65
2019-03-04T05:44:20.173Z,23.00
2019-03-04T05:46:51.027Z,23.55
2019-03-04T05:49:24.230Z,23.05
2019-03-04T05:51:57.305Z,23.18
2019-03-04T05:54:30.804Z,23.67
2019-03-04T05:57:01.759Z,22.75
2019-03-04T05:59:33.399Z,22.48
2019-03-04T06:02:08.442Z,24.55
2019-03-04T06:04:38.757Z,24.50
2019-03-04T06:07:11.740Z,23.95
2019-03-04T06:09:42.576Z,23.40
2019-03-04T06:12:15.146Z,23.85
2019-03-04T06:14:46.087Z,23.75
2019-03-04T06:17:17.225Z,22.90
2019-03-04T06:19:50.010Z,24.25
2019-03-04T06:22:21.048Z,24.57
2019-03-04T06:24:52.207Z,22.70
2019-03-04T06:27:23.840Z,22.98
2019-03-04T06:29:54.828Z,23.92
2019-03-04T06:32:25.841Z,23.70
2019-03-04T06:34:58.405Z,24.00
2019-03-04T06:37:29.238Z,24.45
2019-03-04T06:40:02.326Z,23.95
2019-03-04T06:42:33.959Z,22.58
2019-03-04T06:45:07.084Z,23.20
2019-03-04T06:47:37.791Z,23.85
2019-03-04T06:50:47.661Z,24.37
2019-03-04T06:53:30.978Z,23.07
2019-03-04T06:56:10.752Z,23.35
2019-03-04T06:58:59.572Z,22.77
2019-03-04T07:01:50.792Z,22.80
2019-03-04T07:04:45.066Z,21.73
2019-03-04T07:07:16.382Z,22.32
2019-03-04T07:09:47.679Z,22.73
2019-03-04T07:12:18.286Z,22.52
2019-03-04T07:14:54.450Z,23.12
2019-03-04T07:17:26.009Z,22.73
2019-03-04T07:20:11.991Z,20.82
2019-03-04T07:22:44.660Z,23.83
2019-03-04T07:25:17.749Z,18.45
2019-03-04T07:27:48.592Z,21.15
2019-03-04T07:30:20.865Z,23.07
2019-03-04T07:32:51.800Z,22.58
2019-03-04T07:35:24.985Z,23.90
2019-03-04T07:37:58.896Z,23.00
2019-03-04T07:40:30.548Z,22.93
2019-03-04T07:43:01.000Z,21.77
2019-03-04T07:45:31.705Z,21.90
2019-03-04T07:48:04.178Z,22.37
2019-03-04T07:50:36.149Z,21.75
2019-03-04T07:53:06.895Z,21.60
2019-03-04T07:55:37.509Z,21.87
2019-03-04T07:58:09.353Z,20.68
2019-03-04T08:00:41.018Z,20.85
2019-03-04T08:03:12.669Z,21.15
2019-03-04T08:05:44.498Z,21.23
2019-03-04T08:08:17.242Z,20.20
2019-03-04T08:11:17.440Z,21.27
2019-03-04T08:14:02.395Z,21.00
2019-03-04T08:16:36.130Z,19.90
2019-03-04T08:19:08.677Z,20.68
2019-03-04T08:21:40.944Z,19.12
2019-03-04T08:26:44.768Z,18.15
2019-03-04T08:29:16.617Z,18.92
2019-03-04T08:31:47.183Z,18.98
2019-03-04T08:34:18.902Z,20.05
2019-03-04T08:36:51.570Z,19.37
2019-03-04T08:39:23.093Z,20.37
2019-03-04T08:41:54.532Z,20.97
2019-03-04T08:44:24.946Z,19.25
2019-03-04T08:46:56.559Z,19.07
2019-03-04T08:49:27.598Z,19.00
2019-03-04T08:51:58.434Z,17.98
2019-03-04T08:54:32.270Z,16.65
2019-03-04T08:57:04.131Z,13.18
2019-03-04T08:59:35.691Z,17.50
2019-03-04T09:02:07.225Z,17.40
2019-03-04T09:04:40.627Z,18.20
2019-03-04T09:07:12.443Z,17.98
2019-03-04T09:09:43.082Z,17.40
2019-03-04T09:12:15.685Z,16.73
2019-03-04T09:14:47.938Z,17.07
2019-03-04T09:17:19.077Z,16.37
2019-03-04T09:19:49.695Z,16.42
2019-03-04T09:22:20.438Z,16.82
2019-03-04T09:24:51.370Z,17.95
2019-03-04T09:27:22.347Z,18.55
2019-03-04T09:29:53.168Z,16.80
2019-03-04T09:32:23.920Z,16.75
2019-03-04T09:34:55.220Z,16.48
2019-03-04T09:37:26.053Z,16.23
2019-03-04T09:39:58.104Z,16.23
2019-03-04T09:42:29.267Z,18.23
2019-03-04T09:45:01.353Z,17.85
2019-03-04T09:47:31.843Z,17.73
2019-03-04T09:50:02.913Z,17.70
2019-03-04T09:52:36.393Z,16.57
2019-03-04T09:55:08.977Z,16.77
2019-03-04T09:57:40.224Z,16.45
2019-03-04T10:00:33.468Z,17.60
2019-03-04T10:03:08.202Z,17.00
2019-03-04T10:05:59.714Z,16.97
2019-03-04T10:08:34.647Z,17.80
2019-03-04T10:13:44.527Z,16.93
2019-03-04T10:16:33.775Z,17.60
2019-03-04T10:19:15.878Z,18.05
2019-03-04T10:22:01.477Z,19.30
2019-03-04T10:24:39.736Z,18.10
2019-03-04T10:27:13.877Z,19.23
2019-03-04T10:29:53.824Z,19.90
2019-03-04T10:32:50.471Z,20.15
2019-03-04T10:35:32.871Z,18.60
2019-03-04T10:38:22.556Z,18.52
2019-03-04T10:40:57.952Z,18.95
2019-03-04T10:46:52.258Z,19.05
2019-03-04T10:49:23.644Z,19.17
2019-03-04T10:51:54.470Z,19.20
2019-03-04T10:54:26.444Z,20.75
2019-03-04T10:56:58.671Z,20.12
2019-03-04T10:59:30.676Z,19.37
2019-03-04T11:02:01.098Z,19.25
2019-03-04T11:04:32.649Z,19.12
2019-03-04T11:07:03.905Z,19.35
2019-03-04T11:09:35.859Z,19.07
2019-03-04T11:12:07.415Z,19.48
2019-03-04T11:14:38.038Z,20.68
2019-03-04T11:17:10.304Z,21.45
2019-03-04T11:19:40.964Z,20.25
2019-03-04T11:22:13.110Z,20.17
2019-03-04T11:24:43.628Z,20.30
2019-03-04T11:27:17.897Z,18.12
2019-03-04T11:29:48.382Z,19.48
2019-03-04T11:32:19.266Z,20.23
2019-03-04T11:34:51.793Z,20.60
2019-03-04T11:37:22.825Z,19.95
2019-03-04T11:39:55.913Z,20.85
2019-03-04T11:42:29.420Z,20.27
2019-03-04T11:45:00.404Z,21.25
2019-03-04T11:47:31.497Z,22.65
2019-03-04T11:50:03.458Z,21.85
2019-03-04T11:52:34.280Z,21.97
2019-03-04T11:55:07.572Z,22.20
2019-03-04T11:57:38.370Z,20.90
2019-03-04T12:00:22.453Z,21.90
2019-03-04T12:02:54.313Z,22.00
2019-03-04T12:05:26.217Z,23.32
2019-03-04T12:07:56.801Z,21.30
2019-03-04T12:10:27.553Z,22.35
2019-03-04T12:13:00.291Z,22.48
2019-03-04T12:15:31.155Z,21.07
2019-03-04T12:18:03.020Z,21.00
2019-03-04T12:20:33.746Z,21.77
2019-03-04T12:23:05.448Z,21.77
2019-03-04T12:25:35.950Z,21.97
2019-03-04T12:28:07.511Z,21.80
2019-03-04T12:30:37.985Z,22.27
2019-03-04T12:33:14.065Z,21.30
2019-03-04T12:35:45.814Z,22.58
2019-03-04T12:38:19.745Z,21.87
2019-03-04T12:40:51.181Z,20.75
2019-03-04T12:51:50.730Z,22.75
2019-03-04T12:54:22.477Z,21.87
2019-03-04T12:56:52.835Z,20.95
2019-03-04T12:59:23.965Z,20.82
2019-03-04T13:01:54.296Z,20.92
2019-03-04T13:04:26.742Z,19.85
2019-03-04T13:06:58.250Z,20.60
2019-03-04T13:09:29.146Z,19.92
2019-03-04T13:12:00.179Z,20.20
2019-03-04T13:14:33.366Z,20.23
2019-03-04T13:17:08.327Z,20.10
2019-03-04T13:19:39.238Z,20.65
2019-03-04T13:22:12.435Z,20.82
2019-03-04T13:24:43.978Z,22.10
2019-03-04T13:27:23.548Z,22.17
2019-03-04T13:29:46.876Z,22.50
2019-03-04T13:32:18.024Z,21.48
2019-03-04T13:34:50.901Z,21.60
2019-03-04T13:37:21.645Z,22.00
2019-03-04T13:39:52.571Z,22.20
2019-03-04T13:42:24.036Z,21.82
2019-03-04T13:44:55.267Z,23.07
2019-03-04T13:47:26.100Z,24.67
2019-03-04T13:49:58.598Z,24.02
2019-03-04T13:52:29.110Z,24.25
2019-03-04T13:55:00.298Z,23.98
2019-03-04T13:57:32.925Z,22.65
2019-03-04T14:00:15.223Z,23.07
2019-03-04T14:02:48.219Z,24.23
2019-03-04T14:05:23.066Z,23.30
2019-03-04T14:07:53.393Z,25.23
2019-03-04T14:10:30.480Z,26.50
2019-03-04T14:13:01.690Z,25.85
2019-03-04T14:15:35.705Z,23.25
2019-03-04T14:18:09.089Z,23.55
2019-03-04T14:20:40.038Z,22.37
2019-03-04T14:23:10.667Z,22.13
2019-03-04T14:25:41.318Z,22.32
2019-03-04T14:28:12.953Z,21.82
2019-03-04T14:30:43.480Z,22.00
2019-03-04T14:33:14.307Z,21.75
2019-03-04T14:35:45.502Z,20.43
2019-03-04T14:38:18.059Z,21.30
2019-03-04T14:40:50.113Z,20.40
2019-03-04T14:43:20.611Z,21.45
2019-03-04T14:45:54.344Z,22.75
2019-03-04T14:48:24.791Z,21.02
2019-03-04T14:50:55.534Z,20.20
2019-03-04T14:53:26.883Z,20.23
2019-03-04T14:55:58.068Z,19.52
2019-03-04T14:58:29.570Z,21.73
2019-03-04T15:01:02.406Z,21.48
2019-03-04T15:03:35.484Z,21.20
2019-03-04T15:06:07.211Z,22.15
2019-03-04T15:08:38.178Z,20.92
2019-03-04T15:11:10.547Z,22.20
2019-03-04T15:13:43.025Z,22.10
2019-03-04T15:16:13.860Z,20.82
2019-03-04T15:18:44.759Z,21.82
2019-03-04T15:21:15.223Z,21.87
2019-03-04T15:23:46.056Z,23.07
2019-03-04T15:26:16.566Z,21.55
2019-03-04T15:28:48.961Z,22.55
2019-03-04T15:31:19.382Z,23.07
2019-03-04T15:33:50.015Z,24.47
2019-03-04T15:36:20.546Z,22.02
2019-03-04T15:38:51.175Z,23.50
2019-03-04T15:41:22.524Z,24.27
2019-03-04T15:43:54.484Z,23.40
2019-03-04T15:46:26.024Z,23.12
2019-03-04T15:48:57.064Z,23.80
2019-03-04T15:51:28.411Z,24.77
2019-03-04T15:53:59.248Z,24.30
2019-03-04T15:56:30.091Z,25.43
2019-03-04T15:59:03.476Z,26.12
2019-03-04T16:01:34.312Z,25.05
2019-03-04T16:04:04.978Z,26.80
2019-03-04T16:06:38.643Z,26.42
2019-03-04T16:09:12.366Z,25.52
2019-03-04T16:14:15.500Z,26.35
2019-03-04T16:16:48.330Z,26.23
2019-03-04T16:19:19.601Z,27.13
2019-03-04T16:21:50.005Z,26.50
2019-03-04T16:24:20.734Z,25.85
2019-03-04T16:26:53.002Z,25.92
2019-03-04T16:29:23.849Z,25.55
2019-03-04T16:31:54.472Z,24.90
2019-03-04T16:34:26.021Z,26.52
2019-03-04T16:36:56.320Z,28.70
2019-03-04T16:39:28.100Z,24.90
2019-03-04T16:41:59.039Z,26.57
2019-03-04T16:44:30.282Z,26.02
2019-03-04T16:47:02.046Z,24.32
2019-03-04T16:49:32.461Z,25.05
2019-03-04T16:52:03.232Z,24.15
2019-03-04T16:54:34.239Z,23.70
2019-03-04T16:57:10.120Z,23.52
2019-03-04T16:59:41.641Z,24.25
2019-03-04T17:02:13.727Z,24.45
2019-03-04T17:04:45.365Z,25.20
2019-03-04T17:07:16.096Z,24.37
2019-03-04T17:09:46.402Z,24.65
2019-03-04T17:12:17.591Z,24.40
2019-03-04T17:14:49.224Z,24.23
2019-03-04T17:17:20.147Z,24.55
2019-03-04T17:19:52.830Z,24.43
2019-03-04T17:22:24.392Z,25.10
2019-03-04T17:24:55.790Z,24.60
2019-03-04T17:27:26.272Z,25.15
2019-03-04T17:29:58.203Z,26.87
2019-03-04T17:32:31.744Z,25.77
2019-03-04T17:35:05.074Z,25.70
2019-03-04T17:37:37.999Z,27.30
2019-03-04T17:40:11.809Z,26.15
2019-03-04T17:42:44.986Z,25.70
2019-03-04T17:45:17.826Z,24.15
2019-03-04T17:47:50.029Z,25.32
2019-03-04T17:50:32.492Z,25.60
2019-03-04T17:53:06.458Z,25.55
2019-03-04T17:55:37.690Z,26.73
2019-03-04T17:58:08.021Z,24.10
2019-03-04T18:00:40.283Z,25.40
2019-03-04T18:03:14.393Z,24.87
2019-03-04T18:05:44.716Z,25.08
2019-03-04T18:08:16.065Z,25.08
2019-03-04T18:10:47.498Z,24.45
2019-03-04T18:13:18.283Z,25.48
2019-03-04T18:15:51.454Z,25.70
2019-03-04T18:18:22.067Z,25.47
2019-03-04T18:20:53.213Z,26.80
2019-03-04T18:23:24.568Z,26.77
2019-03-04T18:26:03.815Z,26.45
2019-03-04T18:29:02.791Z,25.95
2019-03-04T18:31:48.398Z,27.42
2019-03-04T18:34:30.338Z,26.52
2019-03-04T18:37:25.770Z,27.10
2019-03-04T18:40:24.176Z,27.93
2019-03-04T18:43:05.949Z,27.95
2019-03-04T18:46:15.311Z,29.52
2019-03-04T18:48:57.555Z,28.42
2019-03-04T18:51:29.652Z,27.82
2019-03-04T18:54:02.123Z,30.60
2019-03-04T18:56:32.850Z,29.95
2019-03-04T18:59:04.615Z,29.10
2019-03-04T19:01:38.210Z,30.92
2019-03-04T19:04:09.257Z,30.72
2019-03-04T19:06:40.390Z,29.82
2019-03-04T19:09:13.074Z,30.68
2019-03-04T19:11:44.520Z,31.17
2019-03-04T19:14:18.777Z,31.65
2019-03-04T19:16:50.794Z,32.98
2019-03-04T19:19:22.963Z,30.62
2019-03-04T19:21:56.052Z,31.75
2019-03-04T19:24:27.302Z,33.28
2019-03-04T19:27:00.248Z,31.02
2019-03-04T19:29:34.596Z,32.40
2019-03-04T19:32:05.328Z,33.28
2019-03-04T19:34:36.882Z,31.80
2019-03-04T19:37:08.433Z,31.35
2019-03-04T19:39:39.381Z,32.00
2019-03-04T19:42:10.648Z,34.23
2019-03-04T19:44:42.163Z,31.20
2019-03-04T19:47:12.490Z,31.00
2019-03-04T19:49:43.834Z,31.37
2019-03-04T19:52:14.737Z,33.25
2019-03-04T19:54:46.323Z,31.35
2019-03-04T19:57:17.366Z,31.90
2019-03-04T19:59:49.883Z,31.33
2019-03-04T20:02:20.367Z,32.75
2019-03-04T20:04:51.208Z,31.52
2019-03-04T20:07:23.263Z,31.17
2019-03-04T20:09:53.960Z,30.68
2019-03-04T20:12:24.826Z,30.32
2019-03-04T20:14:55.460Z,31.17
2019-03-04T20:17:26.096Z,31.93
2019-03-04T20:19:56.821Z,30.32
2019-03-04T20:22:28.380Z,31.48
2019-03-04T20:24:59.056Z,30.23
2019-03-04T20:27:29.328Z,30.30
2019-03-04T20:30:01.696Z,30.95
2019-03-04T20:32:32.734Z,32.25
2019-03-04T20:35:03.608Z,29.87
2019-03-04T20:37:34.508Z,29.92
2019-03-04T20:40:06.821Z,29.67
2019-03-04T20:42:38.422Z,31.80
2019-03-04T20:45:13.979Z,29.02
2019-03-04T20:47:44.405Z,29.67
2019-03-04T20:50:17.536Z,29.45
2019-03-04T20:52:48.226Z,28.95
2019-03-04T20:55:18.954Z,28.80
2019-03-04T20:57:51.113Z,28.40
2019-03-04T21:00:30.497Z,29.27
2019-03-04T21:03:01.801Z,28.07
2019-03-04T21:05:32.411Z,29.10
2019-03-04T21:08:03.271Z,28.27
2019-03-04T21:10:35.425Z,27.95
2019-03-04T21:13:07.456Z,29.05
2019-03-04T21:15:38.537Z,28.12
2019-03-04T21:18:11.320Z,28.07
2019-03-04T21:20:41.946Z,28.32
2019-03-04T21:23:12.982Z,27.62
2019-03-04T21:25:53.545Z,28.67
2019-03-04T21:28:49.469Z,28.27
2019-03-04T21:31:29.109Z,28.35
2019-03-04T21:34:11.186Z,27.75
2019-03-04T21:36:51.266Z,26.87
2019-03-04T21:39:26.521Z,27.35
2019-03-04T21:42:03.692Z,26.85
2019-03-04T21:44:41.063Z,25.70
2019-03-04T21:47:23.184Z,27.25
2019-03-04T21:49:55.330Z,27.17
2019-03-04T21:52:37.438Z,27.42
2019-03-04T21:55:15.044Z,26.90
2019-03-04T21:57:48.621Z,27.25
2019-03-04T22:00:22.901Z,26.75
2019-03-04T22:03:12.010Z,28.65
2019-03-04T22:05:50.367Z,27.45
2019-03-04T22:08:16.035Z,26.45
2019-03-04T22:10:46.155Z,25.57
2019-03-04T22:13:16.891Z,25.25
2019-03-04T22:15:50.690Z,26.80
2019-03-04T22:18:25.421Z,26.95
2019-03-04T22:20:56.377Z,25.57
2019-03-04T22:23:31.699Z,27.50
2019-03-04T22:26:02.481Z,26.77
2019-03-04T22:28:33.973Z,26.23
2019-03-04T22:31:05.529Z,26.42
2019-03-04T22:33:38.515Z,25.70
2019-03-04T22:36:09.146Z,25.72
2019-03-04T22:38:42.335Z,25.77
2019-03-04T22:41:13.769Z,24.43
2019-03-04T22:43:45.869Z,24.40
2019-03-04T22:46:16.262Z,25.55
2019-03-04T22:48:48.046Z,25.17
2019-03-04T22:51:19.999Z,25.85
2019-03-04T22:53:51.407Z,26.70
2019-03-04T22:56:21.674Z,25.52
2019-03-04T22:58:52.805Z,25.80
2019-03-04T23:01:35.511Z,19.23
2019-03-04T23:04:09.723Z,25.77
2019-03-04T23:09:15.225Z,26.82
2019-03-04T23:11:51.110Z,28.12
2019-03-04T23:14:25.919Z,28.17
2019-03-04T23:16:56.604Z,27.95
2019-03-04T23:19:27.334Z,27.00
2019-03-04T23:21:59.705Z,27.73
2019-03-04T23:24:31.186Z,28.30
2019-03-04T23:27:01.647Z,28.38
2019-03-04T23:29:32.414Z,26.35
2019-03-04T23:32:03.554Z,28.07
2019-03-04T23:34:38.883Z,27.62
2019-03-04T23:37:09.730Z,28.02
2019-03-04T23:39:40.567Z,29.37
2019-03-04T23:44:44.785Z,31.87
2019-03-04T23:47:17.164Z,28.65
2019-03-04T23:49:50.457Z,29.27
2019-03-04T23:52:21.294Z,28.87
2019-03-04T23:54:52.850Z,29.92
2019-03-04T23:57:24.397Z,29.25
2019-03-04T23:59:55.836Z,29.20
